createdAt,value
2022-10-21T00:02:27.602Z,90.47
2022-10-21T00:04:55.445Z,90.56
2022-10-21T00:07:23.313Z,90.31
2022-10-21T00:09:49.899Z,90.04
2022-10-21T00:12:17.943Z,89.56
2022-10-21T00:14:45.701Z,89.96
2022-10-21T00:17:13.559Z,89.27
2022-10-21T00:19:42.815Z,89.51
2022-10-21T00:22:10.679Z,89.43
2022-10-21T00:24:38.689Z,89.57
2022-10-21T00:27:06.397Z,89.05
2022-10-21T00:29:34.218Z,89.39
2022-10-21T00:32:02.104Z,89.23
2022-10-21T00:34:30.982Z,89.24
2022-10-21T00:36:58.996Z,89.23
2022-10-21T00:39:27.016Z,88.85
2022-10-21T00:41:56.759Z,89.04
2022-10-21T00:44:23.407Z,88.87
2022-10-21T00:47:05.396Z,88.33
2022-10-21T00:49:40.619Z,88.59
2022-10-21T00:52:21.923Z,87.92
2022-10-21T00:54:53.012Z,88.11
2022-10-21T00:57:24.439Z,87.40
2022-10-21T00:59:58.029Z,87.13
2022-10-21T01:02:24.778Z,87.08
2022-10-21T01:04:58.507Z,87.07
2022-10-21T01:07:26.282Z,86.31
2022-10-21T01:09:53.929Z,86.33
2022-10-21T01:12:43.640Z,86.18
2022-10-21T01:15:34.118Z,85.88
2022-10-21T01:18:03.657Z,85.83
2022-10-21T01:20:56.272Z,85.51
2022-10-21T01:23:50.692Z,85.72
2022-10-21T01:26:35.352Z,85.21
2022-10-21T01:29:38.725Z,85.33
2022-10-21T01:32:42.850Z,85.11
2022-10-21T01:35:38.454Z,85.17
2022-10-21T01:38:29.526Z,85.56
2022-10-21T01:41:10.879Z,85.44
2022-10-21T01:44:22.690Z,85.87
2022-10-21T01:47:18.760Z,86.03
2022-10-21T01:50:04.697Z,86.03
2022-10-21T01:52:32.992Z,85.83
2022-10-21T01:55:06.612Z,85.86
2022-10-21T01:57:58.166Z,86.05
2022-10-21T02:00:26.386Z,86.32
2022-10-21T02:02:54.235Z,86.11
2022-10-21T02:05:23.740Z,86.55
2022-10-21T02:07:51.764Z,86.84
2022-10-21T02:10:19.988Z,86.89
2022-10-21T02:12:51.468Z,86.95
2022-10-21T02:15:19.911Z,87.53
2022-10-21T02:18:00.408Z,87.39
2022-10-21T02:20:30.165Z,87.71
2022-10-21T02:22:58.656Z,88.03
2022-10-21T02:25:29.839Z,88.80
2022-10-21T02:27:58.149Z,88.96
2022-10-21T02:30:30.733Z,88.96
2022-10-21T02:33:08.172Z,89.46
2022-10-21T02:36:05.891Z,89.28
2022-10-21T02:38:42.220Z,89.14
2022-10-21T02:41:19.933Z,88.68
2022-10-21T02:44:00.616Z,88.75
2022-10-21T02:46:39.965Z,88.92
2022-10-21T02:49:08.514Z,89.05
2022-10-21T02:51:36.973Z,88.36
2022-10-21T02:54:04.770Z,88.71
2022-10-21T02:56:33.113Z,89.27
2022-10-21T02:59:01.477Z,89.06
2022-10-21T03:01:29.243Z,89.49
2022-10-21T03:03:57.287Z,89.41
2022-10-21T03:06:25.269Z,88.60
2022-10-21T03:08:53.008Z,89.16
2022-10-21T03:11:21.094Z,89.44
2022-10-21T03:13:48.957Z,89.09
2022-10-21T03:18:44.372Z,87.70
2022-10-21T03:21:12.033Z,86.98
2022-10-21T03:23:40.024Z,87.18
2022-10-21T03:26:06.601Z,86.68
2022-10-21T03:28:33.135Z,87.22
2022-10-21T03:31:01.284Z,87.08
2022-10-21T03:33:29.070Z,86.90
2022-10-21T03:35:59.430Z,87.17
2022-10-21T03:38:27.636Z,87.39
2022-10-21T03:40:55.534Z,87.60
2022-10-21T03:43:25.526Z,88.21
2022-10-21T03:45:53.570Z,88.89
2022-10-21T03:48:20.195Z,90.42
2022-10-21T03:50:46.947Z,91.22
2022-10-21T03:53:37.933Z,91.76
2022-10-21T03:56:05.138Z,92.17
2022-10-21T03:58:32.017Z,92.71
2022-10-21T04:00:58.584Z,93.83
2022-10-21T04:03:25.139Z,94.80
2022-10-21T04:05:53.363Z,94.95
2022-10-21T04:08:20.655Z,94.97
2022-10-21T04:10:49.065Z,96.62
2022-10-21T04:13:19.429Z,97.26
2022-10-21T04:15:47.049Z,97.37
2022-10-21T04:18:15.123Z,98.81
2022-10-21T04:20:42.924Z,99.88
2022-10-21T04:23:10.686Z,100.00
2022-10-21T04:25:38.598Z,100.00
2022-10-21T04:28:05.829Z,100.00
2022-10-21T04:30:36.212Z,100.00
2022-10-21T04:33:03.322Z,100.00
2022-10-21T04:35:31.816Z,100.00
2022-10-21T04:38:01.017Z,100.00
2022-10-21T04:40:36.358Z,100.00
2022-10-21T04:43:06.524Z,100.00
2022-10-21T04:45:33.424Z,100.00
2022-10-21T04:48:00.030Z,100.00
2022-10-21T04:50:30.336Z,100.00
2022-10-21T04:52:56.966Z,100.00
2022-10-21T04:55:25.063Z,100.00
2022-10-21T04:57:53.089Z,100.00
2022-10-21T05:00:21.137Z,100.00
2022-10-21T05:02:48.750Z,100.00
2022-10-21T05:05:16.612Z,100.00
2022-10-21T05:07:44.428Z,100.00
2022-10-21T05:10:12.068Z,100.00
2022-10-21T05:12:39.684Z,100.00
2022-10-21T05:15:08.110Z,100.00
2022-10-21T05:17:36.971Z,100.00
2022-10-21T05:20:05.399Z,100.00
2022-10-21T05:22:33.171Z,100.00
2022-10-21T05:24:59.710Z,100.00
2022-10-21T05:27:26.259Z,100.00
2022-10-21T05:29:54.066Z,100.00
2022-10-21T05:32:21.632Z,100.00
2022-10-21T05:34:49.300Z,100.00
2022-10-21T05:37:17.277Z,100.00
2022-10-21T05:39:43.894Z,100.00
2022-10-21T05:42:11.583Z,100.00
2022-10-21T05:44:38.201Z,100.00
2022-10-21T05:47:06.107Z,100.00
2022-10-21T05:49:34.097Z,100.00
2022-10-21T05:52:02.507Z,100.00
2022-10-21T05:54:30.683Z,100.00
2022-10-21T05:56:58.728Z,100.00
2022-10-21T05:59:27.006Z,100.00
2022-10-21T06:01:53.694Z,100.00
2022-10-21T06:04:20.276Z,100.00
2022-10-21T06:06:46.995Z,100.00
2022-10-21T06:09:13.698Z,100.00
2022-10-21T06:11:40.325Z,100.00
2022-10-21T06:14:07.023Z,100.00
2022-10-21T06:16:35.447Z,100.00
2022-10-21T06:19:03.357Z,100.00
2022-10-21T06:21:30.101Z,100.00
2022-10-21T06:23:56.713Z,100.00
2022-10-21T06:26:23.436Z,100.00
2022-10-21T06:28:50.188Z,100.00
2022-10-21T06:31:20.618Z,100.00
2022-10-21T06:33:47.492Z,100.00
2022-10-21T06:36:14.418Z,100.00
2022-10-21T06:38:41.709Z,100.00
2022-10-21T06:41:13.288Z,100.00
2022-10-21T06:43:41.439Z,100.00
2022-10-21T06:46:10.915Z,100.00
2022-10-21T06:48:38.167Z,100.00
2022-10-21T06:51:08.804Z,100.00
2022-10-21T06:53:39.075Z,100.00
2022-10-21T06:56:13.762Z,100.00
2022-10-21T06:58:43.497Z,100.00
2022-10-21T07:01:27.717Z,100.00
2022-10-21T07:04:03.333Z,100.00
2022-10-21T07:06:30.683Z,100.00
2022-10-21T07:08:58.806Z,100.00
2022-10-21T07:11:27.108Z,100.00
2022-10-21T07:13:53.790Z,100.00
2022-10-21T07:16:29.891Z,100.00
2022-10-21T07:18:56.860Z,100.00
2022-10-21T07:21:26.099Z,99.08
2022-10-21T07:23:56.513Z,99.07
2022-10-21T07:26:26.792Z,98.27
2022-10-21T07:28:54.933Z,97.55
2022-10-21T07:31:21.952Z,96.74
2022-10-21T07:33:49.121Z,95.35
2022-10-21T07:36:20.301Z,94.09
2022-10-21T07:38:48.489Z,93.59
2022-10-21T07:41:21.002Z,92.05
2022-10-21T07:43:48.129Z,92.51
2022-10-21T07:46:15.402Z,89.99
2022-10-21T07:48:42.273Z,88.12
2022-10-21T07:51:11.520Z,87.67
2022-10-21T07:53:40.151Z,86.76
2022-10-21T07:56:19.191Z,85.17
2022-10-21T07:58:49.301Z,84.38
2022-10-21T08:01:16.889Z,83.10
2022-10-21T08:03:44.141Z,82.70
2022-10-21T08:06:12.603Z,81.75
2022-10-21T08:08:39.978Z,80.38
2022-10-21T08:11:07.138Z,80.92
2022-10-21T08:13:35.007Z,78.01
2022-10-21T08:16:04.685Z,76.93
2022-10-21T08:18:31.332Z,76.20
2022-10-21T08:20:58.025Z,75.23
2022-10-21T08:23:26.452Z,74.78
2022-10-21T08:25:56.669Z,73.32
2022-10-21T08:28:25.553Z,73.85
2022-10-21T08:30:52.245Z,73.51
2022-10-21T08:33:19.390Z,72.59
2022-10-21T08:35:46.066Z,71.99
2022-10-21T08:38:12.719Z,73.28
2022-10-21T08:40:46.235Z,72.99
2022-10-21T08:43:33.880Z,73.38
2022-10-21T08:46:03.246Z,72.59
2022-10-21T08:48:36.312Z,72.87
2022-10-21T08:51:06.573Z,72.15
2022-10-21T08:53:42.329Z,71.59
2022-10-21T08:56:18.639Z,71.32
2022-10-21T08:58:50.363Z,70.03
2022-10-21T09:01:34.131Z,68.79
2022-10-21T09:04:10.353Z,67.44
2022-10-21T09:07:02.205Z,65.32
2022-10-21T09:09:38.564Z,65.48
2022-10-21T09:12:19.948Z,64.63
2022-10-21T09:15:10.332Z,63.12
2022-10-21T09:18:21.861Z,63.18
2022-10-21T09:21:03.157Z,61.87
2022-10-21T09:23:42.734Z,61.96
2022-10-21T09:26:30.648Z,61.45
2022-10-21T09:28:57.607Z,62.42
2022-10-21T09:31:24.228Z,62.74
2022-10-21T09:33:58.336Z,61.11
2022-10-21T09:36:32.539Z,60.66
2022-10-21T09:39:10.906Z,61.31
2022-10-21T09:41:42.868Z,61.12
2022-10-21T09:44:19.429Z,60.07
2022-10-21T09:46:47.766Z,60.74
2022-10-21T09:50:01.602Z,58.80
2022-10-21T09:52:20.150Z,58.07
2022-10-21T09:54:47.522Z,58.62
2022-10-21T09:57:16.088Z,59.03
2022-10-21T10:00:00.110Z,56.74
2022-10-21T10:02:37.359Z,55.13
2022-10-21T10:05:44.101Z,55.98
2022-10-21T10:08:19.859Z,55.37
2022-10-21T10:10:46.511Z,55.76
2022-10-21T10:13:18.717Z,54.62
2022-10-21T10:15:45.467Z,53.32
2022-10-21T10:18:23.672Z,55.29
2022-10-21T10:21:15.495Z,55.12
2022-10-21T10:23:48.585Z,55.05
2022-10-21T10:26:22.200Z,53.77
2022-10-21T10:28:52.227Z,52.71
2022-10-21T10:31:33.825Z,52.03
2022-10-21T10:34:07.699Z,51.99
2022-10-21T10:36:40.517Z,51.46
2022-10-21T10:39:16.662Z,50.78
2022-10-21T10:41:48.542Z,50.72
2022-10-21T10:44:37.090Z,50.99
2022-10-21T10:47:05.674Z,50.93
2022-10-21T10:49:41.486Z,49.29
2022-10-21T10:52:11.030Z,50.83
2022-10-21T10:54:42.249Z,50.00
2022-10-21T10:57:34.163Z,48.56
2022-10-21T11:00:21.120Z,47.76
2022-10-21T11:03:10.693Z,46.94
2022-10-21T11:05:45.190Z,46.46
2022-10-21T11:08:34.237Z,46.16
2022-10-21T11:11:04.962Z,46.62
2022-10-21T11:13:35.500Z,46.92
2022-10-21T11:16:05.721Z,44.63
2022-10-21T11:18:40.588Z,44.47
2022-10-21T11:21:42.608Z,44.55
2022-10-21T11:24:09.178Z,45.87
2022-10-21T11:26:51.071Z,42.75
2022-10-21T11:29:39.710Z,42.08
2022-10-21T11:32:11.647Z,43.50
2022-10-21T11:34:51.072Z,42.84
2022-10-21T11:37:27.862Z,43.31
2022-10-21T11:40:03.589Z,42.51
2022-10-21T11:42:42.924Z,41.83
2022-10-21T11:45:12.310Z,40.57
2022-10-21T11:47:56.995Z,42.24
2022-10-21T11:50:48.081Z,42.70
2022-10-21T11:53:36.426Z,42.27
2022-10-21T11:56:13.105Z,42.15
2022-10-21T11:58:42.634Z,41.54
2022-10-21T12:01:30.767Z,42.12
2022-10-21T12:04:26.162Z,42.21
2022-10-21T12:07:28.277Z,42.79
2022-10-21T12:10:17.530Z,42.64
2022-10-21T12:12:49.229Z,42.90
2022-10-21T12:15:20.694Z,43.22
2022-10-21T12:17:50.745Z,42.58
2022-10-21T12:20:28.340Z,43.16
2022-10-21T12:23:05.843Z,42.93
2022-10-21T12:25:41.234Z,41.32
2022-10-21T12:28:32.474Z,40.45
2022-10-21T12:31:32.610Z,41.05
2022-10-21T12:33:59.633Z,41.79
2022-10-21T12:36:38.494Z,41.64
2022-10-21T12:39:09.974Z,40.95
2022-10-21T12:41:38.004Z,40.25
2022-10-21T12:44:34.100Z,40.09
2022-10-21T12:47:05.120Z,40.35
2022-10-21T12:49:35.800Z,39.62
2022-10-21T12:52:25.788Z,40.18
2022-10-21T12:54:58.161Z,41.06
2022-10-21T12:57:32.080Z,41.25
2022-10-21T13:00:27.377Z,40.28
2022-10-21T13:03:13.599Z,39.65
2022-10-21T13:05:40.135Z,39.79
2022-10-21T13:08:24.495Z,39.07
2022-10-21T13:11:02.889Z,40.24
2022-10-21T13:13:40.494Z,40.65
2022-10-21T13:16:15.822Z,39.57
2022-10-21T13:18:52.382Z,39.70
2022-10-21T13:21:38.401Z,38.87
2022-10-21T13:24:21.297Z,39.76
2022-10-21T13:26:57.384Z,40.16
2022-10-21T13:29:49.261Z,40.32
2022-10-21T13:32:17.363Z,40.80
2022-10-21T13:34:59.417Z,41.02
2022-10-21T13:37:38.909Z,41.59
2022-10-21T13:40:17.449Z,42.20
2022-10-21T13:42:49.547Z,43.44
2022-10-21T13:45:43.159Z,41.79
2022-10-21T13:48:24.434Z,40.72
2022-10-21T13:50:53.439Z,41.03
2022-10-21T13:53:35.529Z,40.73
2022-10-21T13:56:05.853Z,41.60
2022-10-21T13:58:41.201Z,41.17
2022-10-21T14:01:31.346Z,41.42
2022-10-21T14:04:16.147Z,42.51
2022-10-21T14:06:48.275Z,44.50
2022-10-21T14:09:26.996Z,43.66
2022-10-21T14:12:00.126Z,43.85
2022-10-21T14:14:29.182Z,44.21
2022-10-21T14:17:08.170Z,45.44
2022-10-21T14:19:38.686Z,46.35
2022-10-21T14:24:47.794Z,47.71
2022-10-21T14:27:20.350Z,48.76
2022-10-21T14:29:47.823Z,49.26
2022-10-21T14:32:16.591Z,49.16
2022-10-21T14:35:22.890Z,50.07
2022-10-21T14:37:55.982Z,50.72
2022-10-21T14:40:39.614Z,51.07
2022-10-21T14:43:20.512Z,51.54
2022-10-21T14:45:50.837Z,51.64
2022-10-21T14:48:27.376Z,52.92
2022-10-21T14:50:59.988Z,53.24
2022-10-21T14:53:29.641Z,53.83
2022-10-21T14:55:59.040Z,54.68
2022-10-21T14:58:47.036Z,55.94
2022-10-21T15:01:18.269Z,57.09
2022-10-21T15:03:47.581Z,57.52
2022-10-21T15:06:20.622Z,58.19
2022-10-21T15:08:56.604Z,58.94
2022-10-21T15:11:25.996Z,59.55
2022-10-21T15:14:20.043Z,60.44
2022-10-21T15:16:54.382Z,61.27
2022-10-21T15:19:42.222Z,61.26
2022-10-21T15:22:21.830Z,62.14
2022-10-21T15:24:48.893Z,62.25
2022-10-21T15:27:28.270Z,62.61
2022-10-21T15:29:55.188Z,62.87
2022-10-21T15:32:25.620Z,63.15
2022-10-21T15:34:55.116Z,63.28
2022-10-21T15:37:21.761Z,63.59
2022-10-21T15:39:48.796Z,63.71
2022-10-21T15:42:22.764Z,64.10
2022-10-21T15:44:53.665Z,64.08
2022-10-21T15:47:20.767Z,64.29
2022-10-21T15:49:52.249Z,64.40
2022-10-21T15:52:18.864Z,64.64
2022-10-21T15:54:46.540Z,64.90
2022-10-21T15:57:19.526Z,64.84
2022-10-21T15:59:48.446Z,65.04
2022-10-21T16:02:17.810Z,65.46
2022-10-21T16:04:46.174Z,65.90
2022-10-21T16:07:37.121Z,66.07
2022-10-21T16:10:26.017Z,66.15
2022-10-21T16:12:54.451Z,66.88
2022-10-21T16:15:22.512Z,67.18
2022-10-21T16:17:51.907Z,67.79
2022-10-21T16:20:22.273Z,67.95
2022-10-21T16:22:49.339Z,68.88
2022-10-21T16:25:16.546Z,69.00
2022-10-21T16:27:51.465Z,69.24
2022-10-21T16:30:23.995Z,69.34
2022-10-21T16:32:51.406Z,69.40
2022-10-21T16:35:20.392Z,70.31
2022-10-21T16:37:47.885Z,70.44
2022-10-21T16:40:24.475Z,69.89
2022-10-21T16:42:52.084Z,70.01
2022-10-21T16:45:21.449Z,70.05
2022-10-21T16:47:52.977Z,69.60
2022-10-21T16:50:41.596Z,69.67
2022-10-21T16:53:14.744Z,69.31
2022-10-21T16:55:41.476Z,69.63
2022-10-21T16:58:08.194Z,69.26
2022-10-21T17:00:36.165Z,69.22
2022-10-21T17:03:06.102Z,69.67
2022-10-21T17:08:04.320Z,70.11
2022-10-21T17:10:30.901Z,70.17
2022-10-21T17:12:59.409Z,70.01
2022-10-21T17:15:27.759Z,69.93
2022-10-21T17:17:54.474Z,70.31
2022-10-21T17:20:21.245Z,70.53
2022-10-21T17:22:49.439Z,70.64
2022-10-21T17:25:16.110Z,70.79
2022-10-21T17:27:42.945Z,70.72
2022-10-21T17:30:10.409Z,70.65
2022-10-21T17:32:37.086Z,70.83
2022-10-21T17:35:03.961Z,71.31
2022-10-21T17:37:30.697Z,71.57
2022-10-21T17:39:57.514Z,71.66
2022-10-21T17:42:24.165Z,71.65
2022-10-21T17:44:50.888Z,72.18
2022-10-21T17:47:17.633Z,72.25
2022-10-21T17:49:44.290Z,72.32
2022-10-21T17:52:10.996Z,73.50
2022-10-21T17:54:37.717Z,72.79
2022-10-21T17:57:04.661Z,73.14
2022-10-21T17:59:32.808Z,73.29
2022-10-21T18:02:00.246Z,73.66
2022-10-21T18:04:27.484Z,73.95
2022-10-21T18:06:54.455Z,74.05
2022-10-21T18:09:21.239Z,74.34
2022-10-21T18:11:48.038Z,74.37
2022-10-21T18:14:14.670Z,74.76
2022-10-21T18:16:41.392Z,75.06
2022-10-21T18:19:08.100Z,75.29
2022-10-21T18:21:34.745Z,75.57
2022-10-21T18:24:01.377Z,75.35
2022-10-21T18:26:30.841Z,75.81
2022-10-21T18:29:00.306Z,76.46
2022-10-21T18:31:30.008Z,76.40
2022-10-21T18:33:58.251Z,76.73
2022-10-21T18:36:25.617Z,76.69
2022-10-21T18:38:52.935Z,77.51
2022-10-21T18:41:21.354Z,76.94
2022-10-21T18:43:53.968Z,77.43
2022-10-21T18:46:22.119Z,77.40
2022-10-21T18:48:49.592Z,77.44
2022-10-21T18:51:17.788Z,77.66
2022-10-21T18:53:48.310Z,77.81
2022-10-21T18:56:18.728Z,78.31
2022-10-21T18:58:45.351Z,78.45
2022-10-21T19:01:15.433Z,79.28
2022-10-21T19:03:43.511Z,79.43
2022-10-21T19:06:19.437Z,79.69
2022-10-21T19:08:47.552Z,80.10
2022-10-21T19:11:14.676Z,80.81
2022-10-21T19:13:41.770Z,80.62
2022-10-21T19:16:09.094Z,80.75
2022-10-21T19:18:36.812Z,80.37
2022-10-21T19:21:04.751Z,80.54
2022-10-21T19:23:33.847Z,80.70
2022-10-21T19:26:03.131Z,81.06
2022-10-21T19:28:30.971Z,81.36
2022-10-21T19:30:58.456Z,81.35
2022-10-21T19:33:26.231Z,81.38
2022-10-21T19:35:53.665Z,81.43
2022-10-21T19:38:32.560Z,81.49
2022-10-21T19:41:11.377Z,81.56
2022-10-21T19:43:38.891Z,81.55
2022-10-21T19:46:07.784Z,81.60
2022-10-21T19:48:37.795Z,81.67
2022-10-21T19:51:05.376Z,81.49
2022-10-21T19:53:35.163Z,81.91
2022-10-21T19:56:06.302Z,81.49
2022-10-21T19:58:34.042Z,81.42
2022-10-21T20:01:11.112Z,81.28
2022-10-21T20:03:40.021Z,81.25
2022-10-21T20:06:15.225Z,81.61
2022-10-21T20:08:43.116Z,81.67
2022-10-21T20:11:13.456Z,81.73
2022-10-21T20:13:41.396Z,81.75
2022-10-21T20:16:08.117Z,81.77
2022-10-21T20:18:35.153Z,81.93
2022-10-21T20:21:07.804Z,81.95
2022-10-21T20:23:35.257Z,81.97
2022-10-21T20:26:02.451Z,81.69
2022-10-21T20:28:31.319Z,81.17
2022-10-21T20:31:07.804Z,81.11
2022-10-21T20:33:38.181Z,81.04
2022-10-21T20:36:07.381Z,81.19
2022-10-21T20:38:34.828Z,81.48
2022-10-21T20:41:06.718Z,82.08
2022-10-21T20:43:37.062Z,81.65
2022-10-21T20:46:09.389Z,81.68
2022-10-21T20:48:39.669Z,81.53
2022-10-21T20:51:11.412Z,81.86
2022-10-21T20:53:40.254Z,81.33
2022-10-21T20:56:07.669Z,81.47
2022-10-21T20:58:38.748Z,81.13
2022-10-21T21:01:13.645Z,81.10
2022-10-21T21:03:42.889Z,81.10
2022-10-21T21:06:11.724Z,80.90
2022-10-21T21:08:48.659Z,80.71
2022-10-21T21:11:21.034Z,81.14
2022-10-21T21:13:48.137Z,80.96
2022-10-21T21:16:17.409Z,81.16
2022-10-21T21:18:49.453Z,81.31
2022-10-21T21:21:18.773Z,81.13
2022-10-21T21:23:45.727Z,80.98
2022-10-21T21:26:26.746Z,81.36
2022-10-21T21:28:54.401Z,81.19
2022-10-21T21:31:23.264Z,81.16
2022-10-21T21:33:50.250Z,81.18
2022-10-21T21:36:18.778Z,81.00
2022-10-21T21:38:47.484Z,80.93
2022-10-21T21:41:16.634Z,81.25
2022-10-21T21:43:48.002Z,81.39
2022-10-21T21:46:22.842Z,81.51
2022-10-21T21:48:56.116Z,81.08
2022-10-21T21:51:26.211Z,81.21
2022-10-21T21:54:16.886Z,81.06
2022-10-21T21:56:45.497Z,80.83
2022-10-21T21:59:12.147Z,80.60
2022-10-21T22:01:38.867Z,80.61
2022-10-21T22:04:05.586Z,80.69
2022-10-21T22:06:35.638Z,80.52
2022-10-21T22:09:03.826Z,80.85
2022-10-21T22:11:34.728Z,80.81
2022-10-21T22:14:02.846Z,80.86
2022-10-21T22:16:32.697Z,80.46
2022-10-21T22:19:01.103Z,80.77
2022-10-21T22:21:29.481Z,81.12
2022-10-21T22:23:56.187Z,81.27
2022-10-21T22:26:23.456Z,81.18
2022-10-21T22:28:51.219Z,81.45
2022-10-21T22:31:19.109Z,81.10
2022-10-21T22:33:46.664Z,81.26
2022-10-21T22:36:13.769Z,81.08
2022-10-21T22:38:40.370Z,80.85
2022-10-21T22:41:12.175Z,80.77
2022-10-21T22:43:39.568Z,80.94
2022-10-21T22:46:35.172Z,80.37
2022-10-21T22:48:54.375Z,80.78
2022-10-21T22:51:21.085Z,80.56
2022-10-21T22:53:53.369Z,80.71
2022-10-21T22:56:23.143Z,80.61
2022-10-21T22:58:49.721Z,80.79
2022-10-21T23:01:19.377Z,80.54
2022-10-21T23:03:45.967Z,80.25
2022-10-21T23:06:12.551Z,80.50
2022-10-21T23:08:39.308Z,80.62
2022-10-21T23:11:13.277Z,80.62
2022-10-21T23:13:51.164Z,80.98
2022-10-21T23:16:27.778Z,80.71
2022-10-21T23:18:54.442Z,80.84
2022-10-21T23:21:21.199Z,80.94
2022-10-21T23:23:47.731Z,81.00
2022-10-21T23:26:14.336Z,81.38
2022-10-21T23:28:40.933Z,81.58
2022-10-21T23:31:09.070Z,81.06
2022-10-21T23:33:35.666Z,81.51
2022-10-21T23:36:02.392Z,81.70
2022-10-21T23:38:29.000Z,81.30
2022-10-21T23:40:55.837Z,81.09
2022-10-21T23:43:22.443Z,81.00
2022-10-21T23:45:49.185Z,80.90
2022-10-21T23:48:15.861Z,80.84
2022-10-21T23:50:44.033Z,80.64
2022-10-21T23:53:11.564Z,80.92
2022-10-21T23:55:38.148Z,80.70
2022-10-21T23:58:04.797Z,80.87
